createdAt,value
2019-05-25T00:01:25.822Z,12.47
2019-05-25T00:03:54.269Z,12.57
2019-05-25T00:06:22.761Z,14.77
2019-05-25T00:08:51.238Z,13.27
2019-05-25T00:11:19.705Z,12.20
2019-05-25T00:13:48.157Z,12.60
2019-05-25T00:16:16.657Z,11.93
2019-05-25T00:18:45.105Z,11.30
2019-05-25T00:21:14.308Z,11.03
2019-05-25T00:23:42.849Z,10.17
2019-05-25T00:26:11.298Z,11.23
2019-05-25T00:28:39.746Z,11.77
2019-05-25T00:31:08.257Z,14.57
2019-05-25T00:33:36.707Z,15.87
2019-05-25T00:36:05.164Z,15.13
2019-05-25T00:38:33.653Z,16.60
2019-05-25T00:41:02.168Z,17.13
2019-05-25T00:43:30.624Z,20.80
2019-05-25T00:45:59.073Z,18.53
2019-05-25T00:48:27.569Z,20.93
2019-05-25T00:50:56.018Z,20.27
2019-05-25T00:53:24.536Z,20.97
2019-05-25T00:55:52.989Z,22.70
2019-05-25T00:58:21.544Z,22.37
2019-05-25T01:00:50.056Z,23.17
2019-05-25T01:03:18.509Z,25.90
2019-05-25T01:05:46.956Z,24.83
2019-05-25T01:08:15.449Z,26.37
2019-05-25T01:10:43.901Z,26.47
2019-05-25T01:13:12.352Z,26.17
2019-05-25T01:15:40.853Z,27.70
2019-05-25T01:18:09.308Z,29.23
2019-05-25T01:20:37.756Z,27.43
2019-05-25T01:23:06.381Z,28.33
2019-05-25T01:25:34.872Z,26.33
2019-05-25T01:28:03.372Z,29.43
2019-05-25T01:30:31.816Z,30.47
2019-05-25T01:33:00.329Z,28.53
2019-05-25T01:35:28.825Z,31.77
2019-05-25T01:37:57.277Z,33.00
2019-05-25T01:40:25.998Z,32.60
2019-05-25T01:42:54.489Z,32.93
2019-05-25T01:45:22.925Z,34.33
2019-05-25T01:47:51.480Z,30.53
2019-05-25T01:50:19.914Z,32.83
2019-05-25T01:52:48.391Z,34.10
2019-05-25T01:55:16.890Z,34.03
2019-05-25T01:57:45.389Z,33.77
2019-05-25T02:00:15.506Z,31.87
2019-05-25T02:02:43.990Z,30.10
2019-05-25T02:05:12.492Z,34.07
2019-05-25T02:07:40.941Z,31.07
2019-05-25T02:10:09.457Z,31.10
2019-05-25T02:12:37.949Z,34.57
2019-05-25T02:15:09.321Z,31.17
2019-05-25T02:17:37.828Z,32.00
2019-05-25T02:20:09.086Z,31.20
2019-05-25T02:22:37.560Z,31.70
2019-05-25T02:25:17.839Z,29.17
2019-05-25T02:27:37.777Z,31.90
2019-05-25T02:30:07.218Z,31.33
2019-05-25T02:32:35.658Z,32.40
2019-05-25T02:35:05.948Z,28.00
2019-05-25T02:37:34.448Z,28.03
2019-05-25T02:40:04.477Z,34.30
2019-05-25T02:42:32.957Z,31.80
2019-05-25T02:45:01.446Z,31.13
2019-05-25T02:47:29.936Z,31.10
2019-05-25T02:49:58.392Z,31.37
2019-05-25T02:52:26.848Z,31.60
2019-05-25T02:54:55.353Z,30.93
2019-05-25T02:57:23.803Z,34.07
2019-05-25T02:59:52.252Z,32.67
2019-05-25T03:02:20.987Z,34.20
2019-05-25T03:04:49.477Z,35.63
2019-05-25T03:07:17.925Z,32.73
2019-05-25T03:09:46.373Z,35.07
2019-05-25T03:12:14.908Z,35.37
2019-05-25T03:14:43.404Z,33.27
2019-05-25T03:17:11.847Z,32.63
2019-05-25T03:19:40.341Z,33.43
2019-05-25T03:22:08.861Z,31.83
2019-05-25T03:24:37.345Z,34.13
2019-05-25T03:27:05.852Z,34.10
2019-05-25T03:29:34.294Z,33.50
2019-05-25T03:32:02.807Z,33.80
2019-05-25T03:34:31.296Z,34.63
2019-05-25T03:36:59.773Z,33.23
2019-05-25T03:39:28.280Z,32.83
2019-05-25T03:41:56.748Z,32.07
2019-05-25T03:44:25.248Z,33.97
2019-05-25T03:46:53.700Z,31.10
2019-05-25T03:49:22.188Z,33.73
2019-05-25T03:51:50.641Z,33.30
2019-05-25T03:54:19.141Z,34.03
2019-05-25T03:56:47.592Z,33.23
2019-05-25T03:59:16.037Z,29.03
2019-05-25T04:01:44.532Z,27.37
2019-05-25T04:04:12.981Z,31.67
2019-05-25T04:06:41.491Z,30.23
2019-05-25T04:09:09.984Z,32.60
2019-05-25T04:11:38.497Z,30.67
2019-05-25T04:14:06.989Z,30.10
2019-05-25T04:16:35.499Z,30.40
2019-05-25T04:19:04.041Z,32.67
2019-05-25T04:21:32.514Z,30.80
2019-05-25T04:24:00.961Z,30.90
2019-05-25T04:26:29.469Z,31.63
2019-05-25T04:28:57.954Z,28.67
2019-05-25T04:31:26.408Z,31.13
2019-05-25T04:33:54.909Z,32.07
2019-05-25T04:36:23.356Z,30.17
2019-05-25T04:38:51.839Z,33.33
2019-05-25T04:41:20.305Z,31.50
2019-05-25T04:43:48.753Z,33.70
2019-05-25T04:46:17.257Z,32.97
2019-05-25T04:48:45.701Z,32.93
2019-05-25T04:51:14.145Z,26.60
2019-05-25T04:53:42.749Z,27.17
2019-05-25T04:56:11.192Z,31.20
2019-05-25T04:58:39.636Z,30.70
2019-05-25T05:01:08.137Z,27.97
2019-05-25T05:03:36.586Z,31.23
2019-05-25T05:06:05.038Z,33.40
2019-05-25T05:08:35.815Z,36.07
2019-05-25T05:11:03.714Z,39.47
2019-05-25T05:13:32.189Z,36.80
2019-05-25T05:16:00.693Z,35.50
2019-05-25T05:18:29.139Z,33.53
2019-05-25T05:20:57.577Z,37.57
2019-05-25T05:23:26.097Z,35.67
2019-05-25T05:25:54.552Z,36.00
2019-05-25T05:28:22.997Z,34.43
2019-05-25T05:30:51.485Z,36.13
2019-05-25T05:33:19.986Z,36.57
2019-05-25T05:35:48.429Z,37.40
2019-05-25T05:38:16.884Z,34.73
2019-05-25T05:40:45.382Z,33.83
2019-05-25T05:43:13.850Z,31.30
2019-05-25T05:45:42.977Z,34.17
2019-05-25T05:48:11.598Z,33.20
2019-05-25T05:50:40.040Z,33.70
2019-05-25T05:53:08.519Z,33.67
2019-05-25T05:55:36.989Z,33.00
2019-05-25T05:58:05.433Z,29.70
2019-05-25T06:00:33.921Z,32.80
2019-05-25T06:03:02.413Z,35.47
2019-05-25T06:05:30.997Z,36.27
2019-05-25T06:07:59.449Z,34.77
2019-05-25T06:10:27.898Z,36.67
2019-05-25T06:12:56.480Z,37.80
2019-05-25T06:15:24.929Z,36.23
2019-05-25T06:17:53.409Z,35.53
2019-05-25T06:20:21.925Z,35.67
2019-05-25T06:22:50.417Z,34.93
2019-05-25T06:25:18.867Z,35.87
2019-05-25T06:27:47.398Z,33.20
2019-05-25T06:30:17.136Z,32.50
2019-05-25T06:32:45.661Z,34.70
2019-05-25T06:35:14.317Z,35.17
2019-05-25T06:37:42.823Z,33.93
2019-05-25T06:40:11.307Z,35.13
2019-05-25T06:42:39.829Z,32.83
2019-05-25T06:45:08.308Z,32.63
2019-05-25T06:47:36.761Z,32.10
2019-05-25T06:50:08.230Z,31.30
2019-05-25T06:52:36.765Z,31.20
2019-05-25T06:55:08.263Z,32.70
2019-05-25T06:57:43.287Z,32.67
2019-05-25T07:00:07.454Z,31.57
2019-05-25T07:02:35.948Z,32.70
2019-05-25T07:05:06.851Z,30.77
2019-05-25T07:07:35.349Z,29.10
2019-05-25T07:10:06.405Z,28.63
2019-05-25T07:12:34.849Z,31.30
2019-05-25T07:15:04.644Z,30.73
2019-05-25T07:17:33.139Z,30.57
2019-05-25T07:20:01.677Z,28.43
2019-05-25T07:22:30.201Z,30.90
2019-05-25T07:24:58.728Z,32.17
2019-05-25T07:27:27.186Z,29.73
2019-05-25T07:29:55.685Z,29.80
2019-05-25T07:32:24.129Z,29.83
2019-05-25T07:34:52.581Z,33.57
2019-05-25T07:37:21.204Z,31.93
2019-05-25T07:39:49.624Z,30.30
2019-05-25T07:42:19.992Z,31.77
2019-05-25T07:44:48.214Z,31.67
2019-05-25T07:47:16.661Z,33.33
2019-05-25T07:49:45.113Z,30.37
2019-05-25T07:52:13.597Z,32.63
2019-05-25T07:54:42.048Z,32.73
2019-05-25T07:57:10.501Z,32.07
2019-05-25T07:59:38.997Z,32.97
2019-05-25T08:02:07.485Z,33.93
2019-05-25T08:04:35.954Z,33.10
2019-05-25T08:07:04.437Z,31.13
2019-05-25T08:09:32.889Z,33.43
2019-05-25T08:12:01.577Z,32.47
2019-05-25T08:14:30.149Z,32.73
2019-05-25T08:16:58.589Z,34.43
2019-05-25T08:19:27.121Z,32.27
2019-05-25T08:21:55.612Z,32.87
2019-05-25T08:24:24.071Z,32.00
2019-05-25T08:26:52.564Z,34.20
2019-05-25T08:29:21.019Z,31.93
2019-05-25T08:31:49.539Z,30.97
2019-05-25T08:34:17.989Z,32.43
2019-05-25T08:36:46.504Z,31.03
2019-05-25T08:39:15.045Z,33.73
2019-05-25T08:41:45.672Z,33.37
2019-05-25T08:44:13.718Z,29.87
2019-05-25T08:46:42.145Z,31.17
2019-05-25T08:49:12.488Z,32.27
2019-05-25T08:51:40.889Z,33.20
2019-05-25T08:54:09.336Z,32.93
2019-05-25T08:56:37.976Z,33.07
2019-05-25T08:59:06.429Z,32.47
2019-05-25T09:01:34.952Z,30.97
2019-05-25T09:04:03.670Z,30.27
2019-05-25T09:06:32.172Z,32.77
2019-05-25T09:09:00.616Z,33.10
2019-05-25T09:11:29.324Z,35.60
2019-05-25T09:13:57.772Z,33.37
2019-05-25T09:16:26.212Z,35.33
2019-05-25T09:18:54.720Z,32.13
2019-05-25T09:21:23.315Z,32.50
2019-05-25T09:23:51.754Z,32.23
2019-05-25T09:26:20.349Z,32.60
2019-05-25T09:29:03.493Z,31.83
2019-05-25T09:31:18.919Z,26.73
2019-05-25T09:33:47.369Z,27.20
2019-05-25T09:36:15.861Z,23.67
2019-05-25T09:38:44.384Z,22.83
2019-05-25T09:41:12.826Z,23.93
2019-05-25T09:43:41.477Z,23.63
2019-05-25T09:46:09.972Z,22.60
2019-05-25T09:48:38.558Z,21.47
2019-05-25T09:51:15.262Z,22.77
2019-05-25T09:53:37.184Z,18.53
2019-05-25T09:56:05.634Z,19.17
2019-05-25T09:58:34.116Z,23.00
2019-05-25T10:01:02.659Z,24.00
2019-05-25T10:03:31.084Z,20.07
2019-05-25T10:05:59.536Z,19.57
2019-05-25T10:08:28.032Z,19.03
2019-05-25T10:10:56.489Z,20.17
2019-05-25T10:13:24.969Z,22.23
2019-05-25T10:15:53.505Z,17.80
2019-05-25T10:18:22.029Z,18.93
2019-05-25T10:20:50.492Z,18.47
2019-05-25T10:23:19.012Z,21.43
2019-05-25T10:25:47.456Z,19.93
2019-05-25T10:28:15.916Z,22.97
2019-05-25T10:30:44.404Z,23.27
2019-05-25T10:33:12.854Z,29.07
2019-05-25T10:35:41.504Z,33.07
2019-05-25T10:38:09.961Z,33.37
2019-05-25T10:40:38.418Z,32.00
2019-05-25T10:43:06.977Z,31.53
2019-05-25T10:45:35.429Z,33.30
2019-05-25T10:48:04.097Z,32.67
2019-05-25T10:50:32.557Z,33.97
2019-05-25T10:53:01.068Z,29.50
2019-05-25T10:55:29.633Z,27.83
2019-05-25T10:57:58.146Z,29.07
2019-05-25T11:00:27.263Z,28.00
2019-05-25T11:02:55.769Z,28.10
2019-05-25T11:05:24.228Z,29.47
2019-05-25T11:07:52.676Z,28.43
2019-05-25T11:10:21.168Z,29.60
2019-05-25T11:12:49.621Z,30.53
2019-05-25T11:15:18.117Z,30.07
2019-05-25T11:17:46.569Z,29.73
2019-05-25T11:20:15.125Z,30.63
2019-05-25T11:22:43.590Z,30.67
2019-05-25T11:25:12.201Z,29.07
2019-05-25T11:27:40.693Z,27.40
2019-05-25T11:30:10.318Z,30.43
2019-05-25T11:32:38.967Z,28.33
2019-05-25T11:35:08.045Z,28.20
2019-05-25T11:37:36.489Z,29.33
2019-05-25T11:40:08.054Z,30.00
2019-05-25T11:42:36.517Z,27.67
2019-05-25T11:45:07.697Z,28.40
2019-05-25T11:47:36.145Z,30.90
2019-05-25T11:50:08.003Z,29.17
2019-05-25T11:52:36.484Z,31.20
2019-05-25T11:55:08.459Z,30.73
2019-05-25T11:57:36.919Z,32.43
2019-05-25T12:00:23.341Z,33.43
2019-05-25T12:02:38.189Z,33.67
2019-05-25T12:05:07.577Z,33.33
2019-05-25T12:07:36.101Z,33.53
2019-05-25T12:10:05.646Z,33.73
2019-05-25T12:12:34.230Z,31.30
2019-05-25T12:15:02.688Z,34.83
2019-05-25T12:17:31.169Z,33.50
2019-05-25T12:19:59.658Z,31.27
2019-05-25T12:22:28.178Z,32.03
2019-05-25T12:24:56.674Z,35.43
2019-05-25T12:27:25.117Z,35.07
2019-05-25T12:29:53.571Z,34.30
2019-05-25T12:32:22.083Z,33.77
2019-05-25T12:34:50.530Z,32.57
2019-05-25T12:37:18.965Z,35.50
2019-05-25T12:39:47.464Z,33.73
2019-05-25T12:42:15.950Z,33.47
2019-05-25T12:44:44.386Z,32.07
2019-05-25T12:47:12.837Z,31.97
2019-05-25T12:49:50.675Z,31.30
2019-05-25T12:52:11.433Z,30.50
2019-05-25T12:54:39.887Z,29.30
2019-05-25T12:57:08.369Z,27.77
2019-05-25T12:59:36.874Z,30.20
2019-05-25T13:02:05.585Z,30.47
2019-05-25T13:04:34.035Z,30.77
2019-05-25T13:07:02.613Z,31.53
2019-05-25T13:09:31.066Z,32.93
2019-05-25T13:11:59.514Z,32.73
2019-05-25T13:14:28.000Z,34.40
2019-05-25T13:16:56.561Z,32.87
2019-05-25T13:19:25.064Z,32.80
2019-05-25T13:21:53.581Z,29.27
2019-05-25T13:24:22.054Z,26.73
2019-05-25T13:26:50.500Z,26.50
2019-05-25T13:29:19.002Z,25.20
2019-05-25T13:31:47.449Z,24.33
2019-05-25T13:34:15.902Z,22.30
2019-05-25T13:36:44.417Z,21.43
2019-05-25T13:39:12.908Z,24.37
2019-05-25T13:41:41.433Z,23.07
2019-05-25T13:44:09.939Z,23.77
2019-05-25T13:46:38.454Z,24.20
2019-05-25T13:49:06.902Z,25.83
2019-05-25T13:51:37.101Z,24.23
2019-05-25T13:54:05.551Z,24.40
2019-05-25T13:56:34.019Z,24.87
2019-05-25T13:59:02.509Z,25.50
2019-05-25T14:01:30.960Z,23.67
2019-05-25T14:03:59.428Z,23.77
2019-05-25T14:06:27.925Z,22.53
2019-05-25T14:08:56.377Z,24.40
2019-05-25T14:11:24.884Z,23.97
2019-05-25T14:13:53.317Z,24.03
2019-05-25T14:16:21.770Z,25.57
2019-05-25T14:18:50.324Z,19.87
2019-05-25T14:21:18.775Z,19.87
2019-05-25T14:23:47.217Z,16.90
2019-05-25T14:26:15.724Z,17.97
2019-05-25T14:28:44.170Z,16.87
2019-05-25T14:31:12.645Z,17.07
2019-05-25T14:33:41.206Z,18.73
2019-05-25T14:36:09.649Z,18.23
2019-05-25T14:38:38.160Z,19.33
2019-05-25T14:41:06.601Z,18.63
2019-05-25T14:43:35.117Z,19.03
2019-05-25T14:46:03.611Z,20.63
2019-05-25T14:48:32.121Z,20.17
2019-05-25T14:51:00.564Z,19.20
2019-05-25T14:53:29.052Z,19.30
2019-05-25T14:55:57.502Z,20.20
2019-05-25T14:58:25.945Z,22.40
2019-05-25T15:00:54.450Z,21.20
2019-05-25T15:03:22.969Z,22.03
2019-05-25T15:05:51.511Z,21.20
2019-05-25T15:08:20.001Z,21.33
2019-05-25T15:10:48.447Z,21.30
2019-05-25T15:13:16.933Z,21.73
2019-05-25T15:15:45.381Z,22.93
2019-05-25T15:18:13.862Z,21.20
2019-05-25T15:20:44.709Z,21.40
2019-05-25T15:23:13.214Z,20.83
2019-05-25T15:25:41.666Z,20.23
2019-05-25T15:28:10.118Z,20.33
2019-05-25T15:30:38.609Z,20.23
2019-05-25T15:33:07.057Z,20.90
2019-05-25T15:35:35.516Z,17.97
2019-05-25T15:38:04.018Z,19.57
2019-05-25T15:40:32.469Z,19.43
2019-05-25T15:43:03.791Z,21.70
2019-05-25T15:45:32.311Z,19.50
2019-05-25T15:48:00.748Z,19.53
2019-05-25T15:50:29.246Z,17.10
2019-05-25T15:52:57.833Z,16.53
2019-05-25T15:55:26.310Z,14.87
2019-05-25T15:57:54.814Z,17.50
2019-05-25T16:00:26.522Z,20.30
2019-05-25T16:02:55.179Z,18.90
2019-05-25T16:05:23.700Z,19.23
2019-05-25T16:07:52.158Z,20.47
2019-05-25T16:10:20.758Z,19.70
2019-05-25T16:12:49.253Z,21.03
2019-05-25T16:15:21.008Z,21.00
2019-05-25T16:17:49.457Z,18.63
2019-05-25T16:20:21.214Z,18.17
2019-05-25T16:22:49.772Z,16.47
2019-05-25T16:25:18.346Z,17.83
2019-05-25T16:27:46.834Z,17.63
2019-05-25T16:30:15.297Z,18.90
2019-05-25T16:35:13.966Z,20.30
2019-05-25T16:37:42.711Z,20.33
2019-05-25T16:40:11.364Z,19.47
2019-05-25T16:42:39.957Z,20.10
2019-05-25T16:45:09.241Z,20.03
2019-05-25T16:47:37.693Z,20.37
2019-05-25T16:50:08.123Z,19.97
2019-05-25T16:52:36.625Z,19.13
2019-05-25T16:55:08.527Z,19.30
2019-05-25T16:57:36.942Z,19.10
2019-05-25T17:00:07.205Z,17.80
2019-05-25T17:02:35.661Z,17.47
2019-05-25T17:05:04.477Z,17.23
2019-05-25T17:07:32.965Z,16.70
2019-05-25T17:10:01.482Z,19.17
2019-05-25T17:12:29.928Z,18.93
2019-05-25T17:14:58.417Z,17.27
2019-05-25T17:17:26.915Z,17.37
2019-05-25T17:19:55.361Z,18.27
2019-05-25T17:22:23.875Z,18.43
2019-05-25T17:24:52.394Z,19.13
2019-05-25T17:27:20.837Z,20.03
2019-05-25T17:29:49.285Z,19.00
2019-05-25T17:32:17.777Z,18.90
2019-05-25T17:34:46.217Z,20.63
2019-05-25T17:37:14.661Z,20.70
2019-05-25T17:39:43.153Z,21.77
2019-05-25T17:42:11.593Z,19.10
2019-05-25T17:44:40.178Z,19.47
2019-05-25T17:47:08.617Z,16.33
2019-05-25T17:49:37.146Z,14.70
2019-05-25T17:52:05.645Z,15.50
2019-05-25T17:54:34.174Z,17.30
2019-05-25T17:57:02.685Z,13.23
2019-05-25T17:59:31.189Z,14.80
2019-05-25T18:01:59.711Z,15.63
2019-05-25T18:04:28.220Z,13.23
2019-05-25T18:06:56.701Z,12.37
2019-05-25T18:09:25.214Z,11.87
2019-05-25T18:11:53.648Z,12.33
2019-05-25T18:14:22.098Z,12.93
2019-05-25T18:16:50.614Z,14.73
2019-05-25T18:19:19.062Z,14.00
2019-05-25T18:21:47.504Z,16.77
2019-05-25T18:24:16.107Z,15.43
2019-05-25T18:26:44.593Z,15.23
2019-05-25T18:29:13.042Z,15.47
2019-05-25T18:31:41.558Z,17.40
2019-05-25T18:34:21.744Z,17.73
2019-05-25T18:36:40.108Z,16.47
2019-05-25T18:39:08.607Z,14.97
2019-05-25T18:41:37.058Z,14.30
2019-05-25T18:44:05.549Z,15.10
2019-05-25T18:46:33.999Z,14.30
2019-05-25T18:49:02.450Z,12.77
2019-05-25T18:51:30.945Z,12.93
2019-05-25T18:53:59.471Z,12.57
2019-05-25T18:56:27.921Z,15.13
2019-05-25T18:58:56.749Z,13.10
2019-05-25T19:01:25.420Z,13.83
2019-05-25T19:03:53.918Z,13.30
2019-05-25T19:06:22.368Z,14.13
2019-05-25T19:08:50.855Z,14.20
2019-05-25T19:11:19.361Z,15.57
2019-05-25T19:13:48.028Z,13.10
2019-05-25T19:16:16.480Z,15.17
2019-05-25T19:18:44.973Z,12.20
2019-05-25T19:21:13.421Z,14.50
2019-05-25T19:23:41.862Z,12.20
2019-05-25T19:26:10.360Z,11.70
2019-05-25T19:28:38.877Z,15.90
2019-05-25T19:31:07.373Z,14.20
2019-05-25T19:33:35.821Z,14.33
2019-05-25T19:36:04.272Z,12.60
2019-05-25T19:38:32.756Z,11.27
2019-05-25T19:41:01.278Z,13.13
2019-05-25T19:43:29.781Z,12.90
2019-05-25T19:45:58.234Z,10.40
2019-05-25T19:48:26.715Z,10.23
2019-05-25T19:50:56.364Z,9.93
2019-05-25T19:53:24.936Z,9.60
2019-05-25T19:55:53.389Z,9.13
2019-05-25T19:58:21.971Z,9.60
2019-05-25T20:00:51.703Z,9.83
2019-05-25T20:03:20.216Z,9.47
2019-05-25T20:05:48.660Z,10.37
2019-05-25T20:08:17.157Z,9.53
2019-05-25T20:10:45.664Z,8.30
2019-05-25T20:13:14.185Z,9.47
2019-05-25T20:15:42.694Z,9.13
2019-05-25T20:18:11.145Z,9.47
2019-05-25T20:20:39.602Z,10.27
2019-05-25T20:23:08.162Z,9.73
2019-05-25T20:25:36.616Z,9.53
2019-05-25T20:28:05.121Z,9.07
2019-05-25T20:30:33.560Z,7.73
2019-05-25T20:33:02.025Z,10.43
2019-05-25T20:35:33.456Z,8.97
2019-05-25T20:38:00.627Z,11.13
2019-05-25T20:40:29.076Z,10.10
2019-05-25T20:42:57.605Z,10.77
2019-05-25T20:45:26.048Z,11.87
2019-05-25T20:47:54.536Z,10.90
2019-05-25T20:50:23.041Z,11.23
2019-05-25T20:52:51.517Z,12.03
2019-05-25T20:55:19.953Z,12.63
2019-05-25T20:57:48.454Z,14.20
2019-05-25T21:00:16.905Z,14.77
2019-05-25T21:02:45.555Z,13.53
2019-05-25T21:05:14.077Z,15.03
2019-05-25T21:07:42.532Z,16.23
2019-05-25T21:10:11.527Z,15.40
2019-05-25T21:12:39.957Z,14.57
2019-05-25T21:15:08.440Z,13.97
2019-05-25T21:17:36.888Z,15.80
2019-05-25T21:20:06.254Z,15.47
2019-05-25T21:22:34.700Z,13.60
2019-05-25T21:25:05.940Z,14.93
2019-05-25T21:27:34.571Z,15.43
2019-05-25T21:30:03.130Z,14.63
2019-05-25T21:32:31.607Z,16.07
2019-05-25T21:35:00.104Z,13.67
2019-05-25T21:37:28.540Z,17.27
2019-05-25T21:39:57.019Z,14.67
2019-05-25T21:42:25.509Z,15.93
2019-05-25T21:44:53.960Z,18.27
2019-05-25T21:47:22.404Z,18.70
2019-05-25T21:49:50.925Z,19.70
2019-05-25T21:52:19.366Z,19.13
2019-05-25T21:54:47.813Z,22.10
2019-05-25T21:57:16.333Z,21.00
2019-05-25T21:59:44.779Z,20.83
2019-05-25T22:02:13.230Z,23.47
2019-05-25T22:04:41.742Z,22.07
2019-05-25T22:07:10.259Z,21.67
2019-05-25T22:09:38.878Z,20.83
2019-05-25T22:12:07.384Z,24.30
2019-05-25T22:14:35.820Z,21.67
2019-05-25T22:17:04.269Z,21.87
2019-05-25T22:19:32.817Z,20.80
2019-05-25T22:22:01.314Z,24.33
2019-05-25T22:24:29.806Z,26.03
2019-05-25T22:26:58.250Z,22.73
2019-05-25T22:29:26.709Z,25.37
2019-05-25T22:31:56.277Z,26.33
2019-05-25T22:34:24.733Z,25.40
2019-05-25T22:36:55.130Z,25.00
2019-05-25T22:39:24.043Z,25.30
2019-05-25T22:41:54.250Z,24.77
2019-05-25T22:44:22.710Z,27.33
2019-05-25T22:46:51.197Z,23.47
2019-05-25T22:49:19.645Z,25.90
2019-05-25T22:51:48.086Z,23.33
2019-05-25T22:54:17.140Z,24.13
2019-05-25T22:56:45.584Z,24.77
2019-05-25T22:59:14.033Z,25.83
2019-05-25T23:01:42.529Z,25.20
2019-05-25T23:04:10.976Z,23.63
2019-05-25T23:06:56.113Z,24.23
2019-05-25T23:09:09.552Z,22.00
2019-05-25T23:11:38.046Z,22.90
2019-05-25T23:14:09.711Z,23.93
2019-05-25T23:16:36.585Z,23.30
2019-05-25T23:19:05.161Z,23.90
2019-05-25T23:21:33.605Z,25.93
2019-05-25T23:24:02.053Z,28.23
2019-05-25T23:26:30.548Z,27.27
2019-05-25T23:28:58.999Z,24.33
2019-05-25T23:31:27.444Z,23.30
2019-05-25T23:33:55.925Z,26.17
2019-05-25T23:36:24.413Z,25.83
2019-05-25T23:38:52.900Z,22.37
2019-05-25T23:41:21.411Z,24.73
2019-05-25T23:43:49.848Z,25.73
2019-05-25T23:46:18.297Z,23.40
2019-05-25T23:48:46.793Z,22.87
2019-05-25T23:51:15.232Z,23.60
2019-05-25T23:53:43.680Z,22.90
2019-05-25T23:56:12.177Z,24.47
2019-05-25T23:58:40.625Z,22.77
